Cafer Dede — V7PR8 — position and weather

sailwx.info

Track history (hours):
 
Tides and Currents Weather Stations Pressure Air Temp Water Temp Dewpoint Dewpoint Depression Visibility Wind Speed Wind Dir Waves Ship Positions

Cafer Dede

Last reported at 2017-Sep-17 23:05 UTC. Time now 2017-Sep-21 16:16 UTC.
Position N 31°47' W 080°26'.

Length 182 m; draft 9.1 m.

Type: Ship (hazmat cat A). MMSI: 538090362.

Date/timePositionNaut miles runAvg speedWind from/ knotsBaromVisibWave heightAir tempDewpointWater temp
2017-Sep-17 23:05N 31°47' W 080°26'410.5
2017-Sep-17 22:45N 31°48' W 080°29'2 7.4
2017-Sep-17 22:30N 31°49' W 080°31'0 0.0
2017-Sep-17 12:15N 31°49' W 080°31'0 0.0
2017-Sep-17 11:57N 31°49' W 080°31'0 0.0
2017-Sep-17 11:20N 31°49' W 080°31'0 0.0
2017-Sep-17 10:56N 31°49' W 080°31'0 0.0
2017-Sep-17 10:20N 31°49' W 080°31'0 0.0
2017-Sep-17 09:56N 31°49' W 080°31'0 0.1
2017-Sep-17 09:25N 31°49' W 080°31'0 0.0
2017-Sep-17 04:47N 31°49' W 080°31'0 0.0
2017-Sep-17 04:23N 31°49' W 080°31'0 0.1
2017-Sep-17 03:17N 31°49' W 080°31'0 0.1
2017-Sep-17 02:53N 31°49' W 080°31'0 0.0
2017-Sep-17 02:28N 31°49' W 080°31'0 0.0
2017-Sep-17 01:58N 31°49' W 080°31'0 0.0
2017-Sep-17 01:28N 31°49' W 080°31'0 0.0
2017-Sep-17 00:40N 31°49' W 080°31'0 0.1
2017-Sep-16 21:50N 31°49' W 080°31'0 0.0
2017-Sep-16 21:14N 31°49' W 080°31'0 0.0
2017-Sep-16 20:44N 31°49' W 080°31'0 0.0
2017-Sep-16 20:26N 31°49' W 080°31'0 0.0
2017-Sep-16 16:48N 31°49' W 080°31'0 0.1
2017-Sep-16 15:48N 31°49' W 080°31'0 0.3
2017-Sep-16 15:31N 31°49' W 080°31'812.6
2017-Sep-16 14:52N 31°54' W 080°38'614.5
2017-Sep-16 14:29N 31°58' W 080°43'511.3
2017-Sep-16 14:00N 32°01' W 080°48'713.4
2017-Sep-16 13:30N 32°03' W 080°56'611.3
2017-Sep-16 12:59N 32°05' W 081°03'3 6.6
2017-Sep-16 12:30N 32°06' W 081°06'3 6.0
2017-Sep-16 12:01N 32°08' W 081°08'1 1.3
2017-Sep-16 11:17N 32°07' W 081°08'0 0.0
2017-Sep-16 10:53N 32°07' W 081°08'0 0.0
2017-Sep-16 10:29N 32°07' W 081°08'0 0.0
2017-Sep-16 09:59N 32°07' W 081°08'0 0.0
2017-Sep-16 09:22N 32°07' W 081°08'0 0.0
2017-Sep-16 08:58N 32°07' W 081°08'0 0.0
2017-Sep-16 08:22N 32°07' W 081°08'0 0.0
2017-Sep-16 07:58N 32°07' W 081°08'0 0.0
2017-Sep-16 07:28N 32°07' W 081°08'0 0.0
2017-Sep-16 06:51N 32°07' W 081°08'0 0.0
2017-Sep-16 06:27N 32°07' W 081°08'0 0.0
2017-Sep-16 05:57N 32°07' W 081°08'0 0.0
2017-Sep-16 05:27N 32°07' W 081°08'0 0.0
2017-Sep-16 04:44N 32°07' W 081°08'0 0.0
2017-Sep-16 04:26N 32°07' W 081°08'0 0.0
2017-Sep-16 03:20N 32°07' W 081°08'0 0.0
2017-Sep-16 02:59N 32°07' W 081°08'0 0.0
2017-Sep-16 02:13N 32°07' W 081°08'0 0.0
2017-Sep-16 01:55N 32°07' W 081°08'0 0.0
2017-Sep-16 00:43N 32°07' W 081°08'0 0.0
2017-Sep-16 00:13N 32°07' W 081°08'0 0.0
2017-Sep-16 00:00N 32°07' W 081°08'0 0.0
2017-Sep-15 23:30N 32°07' W 081°08'0 0.0
2017-Sep-15 22:54N 32°07' W 081°08'0 0.0
2017-Sep-15 22:30N 32°07' W 081°08'0 0.4
2017-Sep-15 22:00N 32°07' W 081°08'2 4.1
2017-Sep-15 21:30N 32°05' W 081°06'3 5.1
2017-Sep-15 21:00N 32°05' W 081°03'4 7.5
2017-Sep-15 20:30N 32°05' W 080°59'612.1
2017-Sep-15 20:00N 32°02' W 080°52'5 9.9
2017-Sep-15 19:30N 31°60' W 080°47'713.6
2017-Sep-15 19:00N 31°58' W 080°40'3 5.0
2017-Sep-15 18:30N 31°59' W 080°37'3 6.2
2017-Sep-15 18:01N 31°59' W 080°33'0 0.3
2017-Sep-15 17:26N 31°60' W 080°33'0 0.0
2017-Sep-15 16:56N 31°60' W 080°33'0 0.0
2017-Sep-15 16:13N 31°60' W 080°33'0 0.1
2017-Sep-15 15:55N 31°60' W 080°33'0 0.0
2017-Sep-15 15:25N 31°60' W 080°33'0 0.1
2017-Sep-15 14:55N 31°60' W 080°33'0 0.1
2017-Sep-15 14:13N 31°60' W 080°33'0 0.0
2017-Sep-15 13:12N 31°60' W 080°33'0 0.1
2017-Sep-15 13:00N 31°60' W 080°33'0 0.0
2017-Sep-15 12:30N 31°60' W 080°33'0 0.0
2017-Sep-15 11:47N 31°60' W 080°33'0 0.0
2017-Sep-15 11:17N 31°60' W 080°33'0 0.0
2017-Sep-15 10:59N 31°60' W 080°33'0 0.0
2017-Sep-15 10:29N 31°60' W 080°33'0 0.1
2017-Sep-15 08:58N 31°60' W 080°33'0 0.1
2017-Sep-15 08:28N 31°60' W 080°33'0 0.0
2017-Sep-15 07:52N 31°60' W 080°33'0 0.0
2017-Sep-15 06:51N 31°60' W 080°33'0 0.0
2017-Sep-15 05:03N 31°60' W 080°33'0 0.1
2017-Sep-15 04:50N 31°60' W 080°33'0 0.0
2017-Sep-15 04:26N 31°60' W 080°33'0 0.0
2017-Sep-15 03:38N 31°60' W 080°33'0 0.1
2017-Sep-15 03:14N 31°60' W 080°33'0 0.1
2017-Sep-15 02:07N 31°60' W 080°33'0 0.0
2017-Sep-15 01:49N 31°60' W 080°33'0 0.1
2017-Sep-15 01:19N 31°60' W 080°33'0 0.0
2017-Sep-15 00:49N 31°60' W 080°33'0 0.0
2017-Sep-14 23:42N 31°60' W 080°33'0 0.0
2017-Sep-14 23:30N 31°60' W 080°33'0 0.0
2017-Sep-14 23:00N 31°60' W 080°33'0 0.0
2017-Sep-14 22:30N 31°60' W 080°33'0 0.0
2017-Sep-14 21:59N 31°60' W 080°33'0 0.0
2017-Sep-14 21:17N 31°60' W 080°33'0 0.0
2017-Sep-14 20:59N 31°60' W 080°33'0 0.0
2017-Sep-14 20:29N 31°60' W 080°33'0 0.0
2017-Sep-14 19:40N 31°60' W 080°33'0 0.1
2017-Sep-14 19:28N 31°60' W 080°33'0 0.0
2017-Sep-14 18:52N 31°60' W 080°33'0 0.0
2017-Sep-14 18:22N 31°60' W 080°33'0 0.0
2017-Sep-14 17:21N 31°60' W 080°33'0 0.0
2017-Sep-14 15:51N 31°60' W 080°33'0 0.0
2017-Sep-14 15:27N 31°60' W 080°33'0 0.1
2017-Sep-14 14:14N 31°60' W 080°33'0 0.2
2017-Sep-14 13:44N 31°60' W 080°33'0 0.0
2017-Sep-14 13:02N 31°60' W 080°33'0 0.1
2017-Sep-14 12:49N 31°60' W 080°33'0 0.1
2017-Sep-14 12:25N 31°60' W 080°33'0 0.0
2017-Sep-14 11:55N 31°60' W 080°33'0 0.1
2017-Sep-14 10:49N 31°60' W 080°33'0 0.0
2017-Sep-14 10:31N 31°60' W 080°33'0 0.0
2017-Sep-14 10:00N 31°60' W 080°33'0 0.1
2017-Sep-14 09:18N 31°60' W 080°33'0 0.0
2017-Sep-14 08:48N 31°60' W 080°33'0 0.0
2017-Sep-14 08:24N 31°60' W 080°33'0 0.0
2017-Sep-14 07:59N 31°60' W 080°33'0 0.0
2017-Sep-14 07:29N 31°60' W 080°33'0 0.0
2017-Sep-14 06:53N 31°60' W 080°33'0 0.0
2017-Sep-14 06:29N 31°60' W 080°33'0 0.0
2017-Sep-14 05:52N 31°60' W 080°33'0 0.0
2017-Sep-14 05:22N 31°60' W 080°33'0 0.0
2017-Sep-14 04:34N 31°60' W 080°33'0 0.1
2017-Sep-14 04:22N 31°60' W 080°33'0 0.0
2017-Sep-14 03:58N 31°60' W 080°33'0 0.0
2017-Sep-14 03:15N 31°60' W 080°33'0 0.0
2017-Sep-14 02:51N 31°60' W 080°33'0 0.0
2017-Sep-14 01:33N 31°60' W 080°33'0 0.1
2017-Sep-14 01:21N 31°60' W 080°33'0 0.1
2017-Sep-14 00:56N 31°60' W 080°33'0 0.0
2017-Sep-13 23:32N 31°60' W 080°33'0 0.1
2017-Sep-13 23:14N 31°60' W 080°33'0 0.3
2017-Sep-13 22:58N 31°60' W 080°33'5 9.4
2017-Sep-13 22:30N 31°60' W 080°28'714.3
2017-Sep-13 22:01N 31°59' W 080°20'714.3
2017-Sep-13 21:31N 31°60' W 080°11'714.0
2017-Sep-13 21:00N 32°01' W 080°03'21814.7
2017-Sep-13 06:10N 33°58' W 076°23'312.9
2017-Sep-13 05:57N 33°60' W 076°21'614.3
2017-Sep-13 05:30N 34°04' W 076°16'16811.7
2017-Sep-12 15:07N 36°50' W 075°40'0 0.0
2017-Sep-12 14:52N 36°50' W 075°40'0 0.0
2017-Sep-12 14:28N 36°50' W 075°40'0 0.0
2017-Sep-12 13:30N 36°50' W 075°40'0 0.1
2017-Sep-12 13:00N 36°50' W 075°40'0 0.0
2017-Sep-12 09:07N 36°50' W 075°40'  
2017-Sep-08 06:34N 36°49' W 075°47'215.6
2017-Sep-08 06:29N 36°50' W 075°49'715.8
2017-Sep-08 06:00N 36°55' W 075°56'612.7
2017-Sep-08 05:30N 36°58' W 076°03'815.3
2017-Sep-08 05:00N 36°60' W 076°12'713.2
2017-Sep-08 04:30N 36°58' W 076°20'3 3.8
2017-Sep-08 03:50N 36°55' W 076°20'0 0.0
2017-Sep-08 03:23N 36°55' W 076°20'0 0.0
2017-Sep-08 02:55N 36°55' W 076°20'0 0.0
2017-Sep-08 02:22N 36°55' W 076°20'0 0.0
2017-Sep-08 01:58N 36°55' W 076°20'0 0.0
2017-Sep-08 01:28N 36°55' W 076°20'0 0.0
2017-Sep-08 00:46N 36°55' W 076°20'0 0.0
2017-Sep-08 00:27N 36°55' W 076°20'  
Track history (hours):
 
Tides and Currents Weather Stations Pressure Air Temp Water Temp Dewpoint Dewpoint Depression Visibility Wind Speed Wind Dir Waves Ship Positions

Cafer Dede

Last reported at 2017-Sep-17 23:05 UTC. Time now 2017-Sep-21 16:16 UTC.
Position N 31°47' W 080°26'.

Length 182 m; draft 9.1 m.

Type: Ship (hazmat cat A). MMSI: 538090362.

Date/timePositionNaut miles runAvg speedWind from/ knotsBaromVisibWave heightAir tempDewpointWater temp
2017-Sep-17 23:05N 31°47' W 080°26'410.5
2017-Sep-17 22:45N 31°48' W 080°29'2 7.4
2017-Sep-17 22:30N 31°49' W 080°31'0 0.0
2017-Sep-17 12:15N 31°49' W 080°31'0 0.0
2017-Sep-17 11:57N 31°49' W 080°31'0 0.0
2017-Sep-17 11:20N 31°49' W 080°31'0 0.0
2017-Sep-17 10:56N 31°49' W 080°31'0 0.0
2017-Sep-17 10:20N 31°49' W 080°31'0 0.0
2017-Sep-17 09:56N 31°49' W 080°31'0 0.1
2017-Sep-17 09:25N 31°49' W 080°31'0 0.0
2017-Sep-17 04:47N 31°49' W 080°31'0 0.0
2017-Sep-17 04:23N 31°49' W 080°31'0 0.1
2017-Sep-17 03:17N 31°49' W 080°31'0 0.1
2017-Sep-17 02:53N 31°49' W 080°31'0 0.0
2017-Sep-17 02:28N 31°49' W 080°31'0 0.0
2017-Sep-17 01:58N 31°49' W 080°31'0 0.0
2017-Sep-17 01:28N 31°49' W 080°31'0 0.0
2017-Sep-17 00:40N 31°49' W 080°31'0 0.1
2017-Sep-16 21:50N 31°49' W 080°31'0 0.0
2017-Sep-16 21:14N 31°49' W 080°31'0 0.0
2017-Sep-16 20:44N 31°49' W 080°31'0 0.0
2017-Sep-16 20:26N 31°49' W 080°31'0 0.0
2017-Sep-16 16:48N 31°49' W 080°31'0 0.1
2017-Sep-16 15:48N 31°49' W 080°31'0 0.3
2017-Sep-16 15:31N 31°49' W 080°31'812.6
2017-Sep-16 14:52N 31°54' W 080°38'614.5
2017-Sep-16 14:29N 31°58' W 080°43'511.3
2017-Sep-16 14:00N 32°01' W 080°48'713.4
2017-Sep-16 13:30N 32°03' W 080°56'611.3
2017-Sep-16 12:59N 32°05' W 081°03'3 6.6
2017-Sep-16 12:30N 32°06' W 081°06'3 6.0
2017-Sep-16 12:01N 32°08' W 081°08'1 1.3
2017-Sep-16 11:17N 32°07' W 081°08'0 0.0
2017-Sep-16 10:53N 32°07' W 081°08'0 0.0
2017-Sep-16 10:29N 32°07' W 081°08'0 0.0
2017-Sep-16 09:59N 32°07' W 081°08'0 0.0
2017-Sep-16 09:22N 32°07' W 081°08'0 0.0
2017-Sep-16 08:58N 32°07' W 081°08'0 0.0
2017-Sep-16 08:22N 32°07' W 081°08'0 0.0
2017-Sep-16 07:58N 32°07' W 081°08'0 0.0
2017-Sep-16 07:28N 32°07' W 081°08'0 0.0
2017-Sep-16 06:51N 32°07' W 081°08'0 0.0
2017-Sep-16 06:27N 32°07' W 081°08'0 0.0
2017-Sep-16 05:57N 32°07' W 081°08'0 0.0
2017-Sep-16 05:27N 32°07' W 081°08'0 0.0
2017-Sep-16 04:44N 32°07' W 081°08'0 0.0
2017-Sep-16 04:26N 32°07' W 081°08'0 0.0
2017-Sep-16 03:20N 32°07' W 081°08'0 0.0
2017-Sep-16 02:59N 32°07' W 081°08'0 0.0
2017-Sep-16 02:13N 32°07' W 081°08'0 0.0
2017-Sep-16 01:55N 32°07' W 081°08'0 0.0
2017-Sep-16 00:43N 32°07' W 081°08'0 0.0
2017-Sep-16 00:13N 32°07' W 081°08'0 0.0
2017-Sep-16 00:00N 32°07' W 081°08'0 0.0
2017-Sep-15 23:30N 32°07' W 081°08'0 0.0
2017-Sep-15 22:54N 32°07' W 081°08'0 0.0
2017-Sep-15 22:30N 32°07' W 081°08'0 0.4
2017-Sep-15 22:00N 32°07' W 081°08'2 4.1
2017-Sep-15 21:30N 32°05' W 081°06'3 5.1
2017-Sep-15 21:00N 32°05' W 081°03'4 7.5
2017-Sep-15 20:30N 32°05' W 080°59'612.1
2017-Sep-15 20:00N 32°02' W 080°52'5 9.9
2017-Sep-15 19:30N 31°60' W 080°47'713.6
2017-Sep-15 19:00N 31°58' W 080°40'3 5.0
2017-Sep-15 18:30N 31°59' W 080°37'3 6.2
2017-Sep-15 18:01N 31°59' W 080°33'0 0.3
2017-Sep-15 17:26N 31°60' W 080°33'0 0.0
2017-Sep-15 16:56N 31°60' W 080°33'0 0.0
2017-Sep-15 16:13N 31°60' W 080°33'0 0.1
2017-Sep-15 15:55N 31°60' W 080°33'0 0.0
2017-Sep-15 15:25N 31°60' W 080°33'0 0.1
2017-Sep-15 14:55N 31°60' W 080°33'0 0.1
2017-Sep-15 14:13N 31°60' W 080°33'0 0.0
2017-Sep-15 13:12N 31°60' W 080°33'0 0.1
2017-Sep-15 13:00N 31°60' W 080°33'0 0.0
2017-Sep-15 12:30N 31°60' W 080°33'0 0.0
2017-Sep-15 11:47N 31°60' W 080°33'0 0.0
2017-Sep-15 11:17N 31°60' W 080°33'0 0.0
2017-Sep-15 10:59N 31°60' W 080°33'0 0.0
2017-Sep-15 10:29N 31°60' W 080°33'0 0.1
2017-Sep-15 08:58N 31°60' W 080°33'0 0.1
2017-Sep-15 08:28N 31°60' W 080°33'0 0.0
2017-Sep-15 07:52N 31°60' W 080°33'0 0.0
2017-Sep-15 06:51N 31°60' W 080°33'0 0.0
2017-Sep-15 05:03N 31°60' W 080°33'0 0.1
2017-Sep-15 04:50N 31°60' W 080°33'0 0.0
2017-Sep-15 04:26N 31°60' W 080°33'0 0.0
2017-Sep-15 03:38N 31°60' W 080°33'0 0.1
2017-Sep-15 03:14N 31°60' W 080°33'0 0.1
2017-Sep-15 02:07N 31°60' W 080°33'0 0.0
2017-Sep-15 01:49N 31°60' W 080°33'0 0.1
2017-Sep-15 01:19N 31°60' W 080°33'0 0.0
2017-Sep-15 00:49N 31°60' W 080°33'0 0.0
2017-Sep-14 23:42N 31°60' W 080°33'0 0.0
2017-Sep-14 23:30N 31°60' W 080°33'0 0.0
2017-Sep-14 23:00N 31°60' W 080°33'0 0.0
2017-Sep-14 22:30N 31°60' W 080°33'0 0.0
2017-Sep-14 21:59N 31°60' W 080°33'0 0.0
2017-Sep-14 21:17N 31°60' W 080°33'0 0.0
2017-Sep-14 20:59N 31°60' W 080°33'0 0.0
2017-Sep-14 20:29N 31°60' W 080°33'0 0.0
2017-Sep-14 19:40N 31°60' W 080°33'0 0.1
2017-Sep-14 19:28N 31°60' W 080°33'0 0.0
2017-Sep-14 18:52N 31°60' W 080°33'0 0.0
2017-Sep-14 18:22N 31°60' W 080°33'0 0.0
2017-Sep-14 17:21N 31°60' W 080°33'0 0.0
2017-Sep-14 15:51N 31°60' W 080°33'0 0.0
2017-Sep-14 15:27N 31°60' W 080°33'0 0.1
2017-Sep-14 14:14N 31°60' W 080°33'0 0.2
2017-Sep-14 13:44N 31°60' W 080°33'0 0.0
2017-Sep-14 13:02N 31°60' W 080°33'0 0.1
2017-Sep-14 12:49N 31°60' W 080°33'0 0.1
2017-Sep-14 12:25N 31°60' W 080°33'0 0.0
2017-Sep-14 11:55N 31°60' W 080°33'0 0.1
2017-Sep-14 10:49N 31°60' W 080°33'0 0.0
2017-Sep-14 10:31N 31°60' W 080°33'0 0.0
2017-Sep-14 10:00N 31°60' W 080°33'0 0.1
2017-Sep-14 09:18N 31°60' W 080°33'0 0.0
2017-Sep-14 08:48N 31°60' W 080°33'0 0.0
2017-Sep-14 08:24N 31°60' W 080°33'0 0.0
2017-Sep-14 07:59N 31°60' W 080°33'0 0.0
2017-Sep-14 07:29N 31°60' W 080°33'0 0.0
2017-Sep-14 06:53N 31°60' W 080°33'0 0.0
2017-Sep-14 06:29N 31°60' W 080°33'0 0.0
2017-Sep-14 05:52N 31°60' W 080°33'0 0.0
2017-Sep-14 05:22N 31°60' W 080°33'0 0.0
2017-Sep-14 04:34N 31°60' W 080°33'0 0.1
2017-Sep-14 04:22N 31°60' W 080°33'0 0.0
2017-Sep-14 03:58N 31°60' W 080°33'0 0.0
2017-Sep-14 03:15N 31°60' W 080°33'0 0.0
2017-Sep-14 02:51N 31°60' W 080°33'0 0.0
2017-Sep-14 01:33N 31°60' W 080°33'0 0.1
2017-Sep-14 01:21N 31°60' W 080°33'0 0.1
2017-Sep-14 00:56N 31°60' W 080°33'0 0.0
2017-Sep-13 23:32N 31°60' W 080°33'0 0.1
2017-Sep-13 23:14N 31°60' W 080°33'0 0.3
2017-Sep-13 22:58N 31°60' W 080°33'5 9.4
2017-Sep-13 22:30N 31°60' W 080°28'714.3
2017-Sep-13 22:01N 31°59' W 080°20'714.3
2017-Sep-13 21:31N 31°60' W 080°11'714.0
2017-Sep-13 21:00N 32°01' W 080°03'21814.7
2017-Sep-13 06:10N 33°58' W 076°23'312.9
2017-Sep-13 05:57N 33°60' W 076°21'614.3
2017-Sep-13 05:30N 34°04' W 076°16'16811.7
2017-Sep-12 15:07N 36°50' W 075°40'0 0.0
2017-Sep-12 14:52N 36°50' W 075°40'0 0.0
2017-Sep-12 14:28N 36°50' W 075°40'0 0.0
2017-Sep-12 13:30N 36°50' W 075°40'0 0.1
2017-Sep-12 13:00N 36°50' W 075°40'0 0.0
2017-Sep-12 09:07N 36°50' W 075°40'  
2017-Sep-08 06:34N 36°49' W 075°47'215.6
2017-Sep-08 06:29N 36°50' W 075°49'715.8
2017-Sep-08 06:00N 36°55' W 075°56'612.7
2017-Sep-08 05:30N 36°58' W 076°03'815.3
2017-Sep-08 05:00N 36°60' W 076°12'713.2
2017-Sep-08 04:30N 36°58' W 076°20'3 3.8
2017-Sep-08 03:50N 36°55' W 076°20'0 0.0
2017-Sep-08 03:23N 36°55' W 076°20'0 0.0
2017-Sep-08 02:55N 36°55' W 076°20'0 0.0
2017-Sep-08 02:22N 36°55' W 076°20'0 0.0
2017-Sep-08 01:58N 36°55' W 076°20'0 0.0
2017-Sep-08 01:28N 36°55' W 076°20'0 0.0
2017-Sep-08 00:46N 36°55' W 076°20'0 0.0
2017-Sep-08 00:27N 36°55' W 076°20'  

Dump ship's entire track history